KLOM

Wings Field Airport

Philadelphia, Pennsylvania, USA
METAR KLOM 150035Z AUTO 00000KT 7SM CLR 20/20 A2990 RMK AO1
Observed Flight Rules
Aug-15 @ 00:35 UTC (32 minutes ago) Visual Flight Rules
Visibility Clouds
7 miles
  • Clear skies
Temperatures Readings
Current 20°C / 68°F
Dewpoint 20°C / 68°F
Humidity 100%
Altimeter 29.9" Hg
Pressure 1013 hPa
Elevation 92
METAR KLOM 150035Z AUTO 00000KT 7SM CLR 20/20 A2990 RMK AO1
Observed Flight Rules
Aug-15 @ 00:35 UTC
(32 minutes ago)
VFR
Clouds
  • Clear skies
Temperature Dewpoint
20°C / 68°F 20°C / 68°F
Humidity Altimeter Pressure
100% 29.9" Hg 1013 hPa